Time;durP1;ratioP1;P1;durP2;ratioP2;P2;SDS_P1;SDS_P2;PMS_P1;PMS_P2;Temp;Humidity;BMP_temperature;BMP_pressure;BME280_temperature;BME280_humidity;BME280_pressure;Samples;Min_cycle;Max_cycle;Signal;HPM_P1;HPM_P2
2021/06/07 00:00:21;;;;;;;7.56;3.32;;;;;;;;;;349918;150;857350;-58
2021/06/07 00:01:25;;;;;;;4.85;4.09;;;;;;;;;;351404;149;864898;-59
2021/06/07 00:02:28;;;;;;;11.29;4.11;;;;;;;;;;353651;149;857238;-58
2021/06/07 00:03:31;;;;;;;7.79;3.83;;;;;;;;;;351813;150;857263;-57
2021/06/07 00:04:33;;;;;;;7.35;3.77;;;;;;;;;;354779;152;866055;-56
2021/06/07 00:05:34;;;;;;;6.26;3.91;;;;;;;;;;348599;152;858149;-57
2021/06/07 00:06:36;;;;;;;4.85;3.79;;;;;;;;;;353194;150;864984;-57
2021/06/07 00:07:38;;;;;;;8.84;3.49;;;;;;;;;;350081;152;864804;-57
2021/06/07 00:08:39;;;;;;;9.05;3.84;;;;;;;;;;353855;150;864909;-57
2021/06/07 00:09:41;;;;;;;6.06;3.57;;;;;;;;;;353273;151;857389;-57
2021/06/07 00:10:43;;;;;;;13.11;3.77;;;;;;;;;;353880;152;859098;-57
2021/06/07 00:11:46;;;;;;;5.24;3.39;;;;;;;;;;352364;149;857350;-58
2021/06/07 00:12:47;;;;;;;5.11;3.54;;;;;;;;;;353044;152;860415;-57
2021/06/07 00:13:49;;;;;;;8.99;3.77;;;;;;;;;;352297;150;865095;-57
2021/06/07 00:14:51;;;;;;;7.31;4.03;;;;;;;;;;353308;150;858743;-57
2021/06/07 00:15:53;;;;;;;7.16;3.59;;;;;;;;;;354050;152;859836;-57
2021/06/07 00:16:55;;;;;;;4.23;3.49;;;;;;;;;;353394;150;864953;-57
2021/06/07 00:17:56;;;;;;;5.14;3.81;;;;;;;;;;353537;150;857799;-55
2021/06/07 00:18:58;;;;;;;6.44;4.86;;;;;;;;;;354342;152;864879;-57
2021/06/07 00:20:00;;;;;;;4.79;3.30;;;;;;;;;;352733;150;865437;-56
2021/06/07 00:21:03;;;;;;;6.30;3.75;;;;;;;;;;354867;152;864924;-57
2021/06/07 00:22:05;;;;;;;4.93;3.84;;;;;;;;;;349876;149;859092;-57
2021/06/07 00:23:09;;;;;;;5.91;3.89;;;;;;;;;;351460;148;858007;-57
2021/06/07 00:24:10;;;;;;;7.94;3.42;;;;;;;;;;349999;149;866282;-57
2021/06/07 00:25:11;;;;;;;5.47;3.68;;;;;;;;;;349472;150;857980;-57
2021/06/07 00:26:14;;;;;;;5.39;3.27;;;;;;;;;;355273;150;866849;-56
2021/06/07 00:27:16;;;;;;;6.91;3.66;;;;;;;;;;350459;150;859200;-57
2021/06/07 00:28:17;;;;;;;3.99;3.59;;;;;;;;;;353037;151;860582;-57
2021/06/07 00:29:19;;;;;;;5.03;3.86;;;;;;;;;;354445;152;857236;-58
2021/06/07 00:30:22;;;;;;;6.74;4.19;;;;;;;;;;354730;150;857255;-57
2021/06/07 00:31:24;;;;;;;5.96;3.79;;;;;;;;;;350398;152;859738;-57
2021/06/07 00:32:25;;;;;;;9.46;3.96;;;;;;;;;;351362;152;864786;-57
2021/06/07 00:33:27;;;;;;;6.38;4.24;;;;;;;;;;350934;150;864819;-57
2021/06/07 00:34:28;;;;;;;6.73;3.86;;;;;;;;;;353425;152;857298;-57
2021/06/07 00:35:31;;;;;;;5.09;3.53;;;;;;;;;;351116;150;857406;-56
2021/06/07 00:36:33;;;;;;;4.51;3.65;;;;;;;;;;353062;150;857482;-57
2021/06/07 00:37:35;;;;;;;8.93;4.09;;;;;;;;;;355563;151;866577;-57
2021/06/07 00:38:37;;;;;;;4.39;3.60;;;;;;;;;;354269;150;858336;-56
2021/06/07 00:39:38;;;;;;;5.05;3.52;;;;;;;;;;355561;151;864860;-57
2021/06/07 00:40:40;;;;;;;6.64;4.12;;;;;;;;;;352989;151;857511;-57
2021/06/07 00:41:43;;;;;;;5.48;3.36;;;;;;;;;;354631;149;857332;-56
2021/06/07 00:42:45;;;;;;;4.29;3.51;;;;;;;;;;355480;151;864920;-57
2021/06/07 00:43:48;;;;;;;9.91;3.56;;;;;;;;;;350807;149;864782;-57
2021/06/07 00:44:50;;;;;;;7.14;4.26;;;;;;;;;;349824;151;857384;-57
2021/06/07 00:45:51;;;;;;;5.29;3.99;;;;;;;;;;350850;151;859907;-57
2021/06/07 00:46:53;;;;;;;5.21;3.37;;;;;;;;;;352914;150;859088;-57
2021/06/07 00:47:55;;;;;;;5.15;3.76;;;;;;;;;;352390;151;857231;-57
2021/06/07 00:48:57;;;;;;;7.65;3.51;;;;;;;;;;351826;149;857237;-58
2021/06/07 00:49:59;;;;;;;8.33;3.88;;;;;;;;;;353794;150;858908;-57
2021/06/07 00:51:01;;;;;;;6.36;3.51;;;;;;;;;;351314;151;859134;-57
2021/06/07 00:52:04;;;;;;;5.74;3.59;;;;;;;;;;351387;150;866475;-58
2021/06/07 00:53:06;;;;;;;6.68;3.46;;;;;;;;;;354394;150;866744;-58
2021/06/07 00:54:08;;;;;;;4.69;3.48;;;;;;;;;;353463;149;857067;-57
2021/06/07 00:55:10;;;;;;;7.17;3.88;;;;;;;;;;353117;150;857480;-58
2021/06/07 00:56:12;;;;;;;5.78;3.29;;;;;;;;;;354914;151;857807;-57
2021/06/07 00:57:14;;;;;;;4.71;3.76;;;;;;;;;;355010;151;857647;-57
2021/06/07 00:58:16;;;;;;;5.03;3.61;;;;;;;;;;353832;150;858164;-57
2021/06/07 00:59:18;;;;;;;3.90;3.45;;;;;;;;;;355460;151;857190;-57
2021/06/07 01:00:22;;;;;;;6.62;4.08;;;;;;;;;;352683;150;857238;-57
2021/06/07 01:01:24;;;;;;;6.76;3.89;;;;;;;;;;355510;151;857895;-57
2021/06/07 01:02:25;;;;;;;7.93;3.31;;;;;;;;;;349194;154;857207;-58
2021/06/07 01:03:27;;;;;;;6.01;3.42;;;;;;;;;;353624;150;857224;-58
2021/06/07 01:04:29;;;;;;;8.70;3.32;;;;;;;;;;352664;151;857340;-58
2021/06/07 01:05:30;;;;;;;4.73;3.34;;;;;;;;;;354087;150;857256;-57
2021/06/07 01:06:34;;;;;;;9.26;3.62;;;;;;;;;;351927;150;858346;-57
2021/06/07 01:11:12;;;;;;;7.12;3.49;;;;;;;14.69;67.39;99493.81;370863;142;881990;-56
2021/06/07 01:12:14;;;;;;;10.20;3.49;;;;;;;14.58;67.64;99495.91;362511;147;857788;-57
2021/06/07 01:13:15;;;;;;;7.32;3.69;;;;;;;14.40;68.20;99463.50;360563;147;857577;-57
2021/06/07 01:14:17;;;;;;;5.02;3.69;;;;;;;;;;363129;145;865147;-56
2021/06/07 01:15:18;;;;;;;9.84;3.71;;;;;;;;;;364540;147;865687;-57
2021/06/07 01:16:22;;;;;;;5.38;3.73;;;;;;;;;;364072;146;858943;-57
2021/06/07 01:17:26;;;;;;;12.40;4.57;;;;;;;;;;365635;145;857224;-58
2021/06/07 01:18:29;;;;;;;9.63;3.83;;;;;;;;;;363215;144;866728;-57
2021/06/07 01:19:30;;;;;;;9.04;3.38;;;;;;;;;;361562;145;857304;-57
2021/06/07 01:20:33;;;;;;;8.40;3.55;;;;;;;;;;365374;145;865785;-57
2021/06/07 01:21:34;;;;;;;5.58;3.33;;;;;;;;;;365495;145;857444;-57
2021/06/07 01:22:36;;;;;;;9.46;3.41;;;;;;;;;;364429;145;857334;-57
2021/06/07 01:23:38;;;;;;;10.24;3.54;;;;;;;;;;364644;145;866609;-57
2021/06/07 01:24:39;;;;;;;7.62;3.59;;;;;;;;;;367116;145;858859;-57
2021/06/07 01:25:41;;;;;;;8.94;3.62;;;;;;;;;;365320;147;858932;-58
2021/06/07 01:26:43;;;;;;;6.65;3.17;;;;;;;;;;363865;146;857510;-57
2021/06/07 01:27:44;;;;;;;8.98;4.11;;;;;;;;;;364525;145;858521;-58
2021/06/07 01:28:46;;;;;;;8.99;3.16;;;;;;;;;;360442;146;859845;-56
2021/06/07 01:29:49;;;;;;;7.37;3.54;;;;;;;;;;360297;147;858876;-56
2021/06/07 01:30:51;;;;;;;6.80;3.56;;;;;;;;;;360458;146;859200;-56
2021/06/07 01:31:52;;;;;;;4.91;3.55;;;;;;;;;;360621;146;857837;-56
2021/06/07 01:32:54;;;;;;;8.45;3.26;;;;;;;;;;360471;145;858235;-56
2021/06/07 01:33:55;;;;;;;4.79;3.34;;;;;;;;;;360564;146;857215;-56
2021/06/07 01:34:57;;;;;;;5.24;3.64;;;;;;;;;;360991;147;857313;-56
2021/06/07 01:36:00;;;;;;;7.55;3.90;;;;;;;;;;361662;145;857294;-56
2021/06/07 01:37:02;;;;;;;6.94;3.90;;;;;;;;;;362254;146;857424;-56
2021/06/07 01:38:04;;;;;;;5.99;3.81;;;;;;;;;;361139;145;857320;-57
2021/06/07 01:39:05;;;;;;;5.92;4.04;;;;;;;;;;360595;145;858948;-57
2021/06/07 01:40:08;;;;;;;6.45;4.02;;;;;;;;;;360692;147;858425;-57
2021/06/07 01:41:11;;;;;;;6.24;4.10;;;;;;;;;;361540;145;859621;-56
2021/06/07 01:42:12;;;;;;;9.42;4.00;;;;;;;;;;360620;149;858806;-56
2021/06/07 01:43:14;;;;;;;9.66;3.83;;;;;;;;;;361407;146;858580;-57
2021/06/07 01:44:15;;;;;;;7.80;3.61;;;;;;;;;;360652;146;860015;-56
2021/06/07 01:45:18;;;;;;;4.96;3.46;;;;;;;;;;360740;149;859001;-56
2021/06/07 01:46:20;;;;;;;4.95;3.51;;;;;;;;;;360457;146;858143;-56
2021/06/07 01:47:22;;;;;;;9.33;3.53;;;;;;;;;;361106;146;857223;-56
2021/06/07 01:48:23;;;;;;;7.68;3.24;;;;;;;;;;352780;151;865528;-56
2021/06/07 01:49:25;;;;;;;8.34;3.69;;;;;;;;;;362265;145;859603;-56
2021/06/07 01:50:27;;;;;;;16.64;4.10;;;;;;;;;;360560;147;858423;-57
2021/06/07 01:51:29;;;;;;;4.66;3.62;;;;;;;;;;362228;145;858770;-56
2021/06/07 01:52:30;;;;;;;6.68;3.94;;;;;;;;;;360474;145;864845;-57
2021/06/07 01:53:32;;;;;;;11.24;4.32;;;;;;;;;;360584;149;857241;-57
2021/06/07 01:54:34;;;;;;;4.24;3.72;;;;;;;;;;362812;145;865019;-57
2021/06/07 01:55:40;;;;;;;9.91;3.35;;;;;;;;;;360533;149;864915;-55
2021/06/07 01:56:42;;;;;;;4.93;3.47;;;;;;;;;;361389;146;859423;-57
2021/06/07 01:57:44;;;;;;;8.17;3.64;;;;;;;;;;360695;145;857221;-57
2021/06/07 01:58:46;;;;;;;9.85;3.49;;;;;;;;;;360520;149;865561;-57
2021/06/07 01:59:47;;;;;;;9.24;3.39;;;;;;;;;;362622;145;857395;-56
2021/06/07 02:00:59;;;;;;;7.30;3.96;;;;;;;;;;363860;146;866674;-56
2021/06/07 02:02:03;;;;;;;5.54;3.41;;;;;;;;;;360424;147;865482;-56
2021/06/07 02:03:05;;;;;;;6.36;3.27;;;;;;;;;;360354;145;857241;-57
2021/06/07 02:04:07;;;;;;;5.86;3.43;;;;;;;;;;360702;149;857428;-56
2021/06/07 02:05:09;;;;;;;7.72;3.42;;;;;;;;;;360719;145;859144;-58
2021/06/07 02:06:12;;;;;;;5.83;3.55;;;;;;;;;;360693;146;865868;-56
2021/06/07 02:07:13;;;;;;;9.01;3.07;;;;;;;;;;360529;149;858963;-57
2021/06/07 02:08:15;;;;;;;8.93;3.51;;;;;;;;;;361392;145;859170;-57
2021/06/07 02:09:17;;;;;;;4.20;3.31;;;;;;;;;;360545;149;857341;-57
2021/06/07 02:10:19;;;;;;;6.60;3.48;;;;;;;;;;361382;145;857194;-55
2021/06/07 02:11:25;;;;;;;6.02;3.93;;;;;;;;;;361486;145;863769;-56
2021/06/07 02:12:26;;;;;;;7.64;3.62;;;;;;;;;;360576;149;856903;-56
2021/06/07 02:13:28;;;;;;;9.34;3.91;;;;;;;;;;361814;145;857606;-57
2021/06/07 02:14:29;;;;;;;4.11;3.32;;;;;;;;;;360630;146;859608;-56
2021/06/07 02:15:31;;;;;;;6.41;3.94;;;;;;;;;;362316;146;865513;-56
2021/06/07 02:16:35;;;;;;;4.66;3.59;;;;;;;;;;360538;145;858179;-56
2021/06/07 02:17:37;;;;;;;4.07;3.21;;;;;;;;;;360727;146;857328;-56
2021/06/07 02:18:38;;;;;;;5.89;4.06;;;;;;;;;;360649;146;857225;-54
2021/06/07 02:19:43;;;;;;;8.82;4.01;;;;;;;;;;360664;149;865750;-54
2021/06/07 02:20:44;;;;;;;5.13;3.63;;;;;;;;;;360826;146;857446;-56
2021/06/07 02:21:45;;;;;;;7.53;3.90;;;;;;;;;;348732;150;864949;-57
2021/06/07 02:22:47;;;;;;;9.44;3.28;;;;;;;;;;360594;149;862238;-57
2021/06/07 02:23:49;;;;;;;6.81;3.35;;;;;;;;;;360642;146;859449;-56
2021/06/07 02:24:51;;;;;;;5.53;3.35;;;;;;;;;;360569;145;858961;-55
2021/06/07 02:25:52;;;;;;;14.04;2.98;;;;;;;;;;360639;149;858677;-56
2021/06/07 02:26:54;;;;;;;3.97;3.22;;;;;;;;;;361685;145;858401;-57
2021/06/07 02:27:56;;;;;;;10.14;3.13;;;;;;;;;;360627;149;857820;-57
2021/06/07 02:28:59;;;;;;;5.72;3.27;;;;;;;;;;361070;146;857270;-56
2021/06/07 02:30:01;;;;;;;6.46;3.11;;;;;;;;;;361272;145;857396;-56
2021/06/07 02:31:03;;;;;;;11.27;3.63;;;;;;;;;;361416;145;857317;-56
2021/06/07 02:32:05;;;;;;;6.81;2.94;;;;;;;;;;360497;145;857846;-58
2021/06/07 02:33:06;;;;;;;8.56;3.33;;;;;;;;;;360702;146;858288;-57
2021/06/07 02:34:08;;;;;;;5.27;3.02;;;;;;;;;;361182;145;858434;-56
2021/06/07 02:35:11;;;;;;;4.81;3.07;;;;;;;;;;362608;145;864927;-57
2021/06/07 02:36:13;;;;;;;4.75;3.26;;;;;;;;;;367314;146;865186;-57
2021/06/07 02:37:15;;;;;;;6.91;3.31;;;;;;;;;;365540;145;857995;-57
2021/06/07 02:38:17;;;;;;;4.65;2.77;;;;;;;;;;360621;146;858760;-57
2021/06/07 02:39:21;;;;;;;9.71;3.59;;;;;;;;;;360617;146;857342;-57
2021/06/07 02:40:25;;;;;;;4.31;3.71;;;;;;;;;;360134;145;866614;-57
2021/06/07 02:41:27;;;;;;;5.08;3.24;;;;;;;;;;360654;146;857740;-57
2021/06/07 02:42:28;;;;;;;6.40;3.43;;;;;;;;;;360552;149;859486;-57
2021/06/07 02:43:30;;;;;;;8.99;3.08;;;;;;;;;;360573;145;857389;-56
2021/06/07 02:44:31;;;;;;;6.55;2.86;;;;;;;;;;360509;146;859191;-57
2021/06/07 02:45:33;;;;;;;5.14;3.03;;;;;;;;;;360649;146;860551;-56
2021/06/07 02:46:35;;;;;;;5.91;2.83;;;;;;;;;;361642;145;859332;-57
2021/06/07 02:47:37;;;;;;;5.99;3.24;;;;;;;;;;360539;149;860280;-57
2021/06/07 02:48:38;;;;;;;10.56;3.39;;;;;;;;;;360613;146;857332;-57
2021/06/07 02:49:40;;;;;;;6.53;2.96;;;;;;;;;;367209;146;857282;-58
2021/06/07 02:50:43;;;;;;;8.30;3.46;;;;;;;;;;366462;146;866652;-57
2021/06/07 02:51:45;;;;;;;15.84;3.23;;;;;;;;;;361190;145;858223;-58
2021/06/07 02:52:49;;;;;;;8.66;3.51;;;;;;;;;;360411;149;857328;-57
2021/06/07 02:53:51;;;;;;;7.68;3.26;;;;;;;;;;360402;146;858982;-57
2021/06/07 02:54:52;;;;;;;6.44;3.19;;;;;;;;;;362151;145;866560;-57
2021/06/07 02:55:54;;;;;;;6.34;3.15;;;;;;;;;;360453;149;862568;-57
2021/06/07 02:56:56;;;;;;;4.24;3.41;;;;;;;;;;360254;145;857209;-58
2021/06/07 02:57:58;;;;;;;6.21;3.39;;;;;;;;;;360343;145;864894;-57
2021/06/07 02:58:59;;;;;;;9.51;3.72;;;;;;;;;;360563;149;857392;-57
2021/06/07 03:00:01;;;;;;;6.78;3.27;;;;;;;;;;360341;145;867989;-57
2021/06/07 03:01:04;;;;;;;4.89;3.96;;;;;;;;;;360665;146;858049;-56
2021/06/07 03:02:06;;;;;;;8.36;3.45;;;;;;;;;;359540;146;860216;-57
2021/06/07 03:03:08;;;;;;;8.12;3.99;;;;;;;;;;361318;145;857821;-58
2021/06/07 03:04:09;;;;;;;4.60;3.45;;;;;;;;;;362420;146;868348;-57
2021/06/07 03:05:11;;;;;;;4.96;3.12;;;;;;;;;;360353;146;865081;-58
2021/06/07 03:06:13;;;;;;;9.20;3.69;;;;;;;;;;361588;145;857318;-57
2021/06/07 03:07:15;;;;;;;5.04;3.65;;;;;;;;;;362368;146;856775;-57
2021/06/07 03:08:17;;;;;;;5.05;3.49;;;;;;;;;;362359;145;865032;-58
2021/06/07 03:09:19;;;;;;;5.08;3.81;;;;;;;;;;360364;149;857311;-57
2021/06/07 03:10:22;;;;;;;6.91;3.44;;;;;;;;;;360560;146;857863;-57
2021/06/07 03:11:24;;;;;;;6.72;3.59;;;;;;;;;;361330;145;858710;-57
2021/06/07 03:12:25;;;;;;;8.19;3.39;;;;;;;;;;355237;151;864852;-58
2021/06/07 03:13:27;;;;;;;6.33;3.41;;;;;;;;;;355632;149;857381;-57
2021/06/07 03:14:29;;;;;;;4.81;3.27;;;;;;;;;;358747;146;859128;-57
2021/06/07 03:15:30;;;;;;;6.58;3.57;;;;;;;;;;357711;148;858591;-57
2021/06/07 03:16:32;;;;;;;4.01;3.61;;;;;;;;;;356143;146;865699;-57
2021/06/07 03:17:34;;;;;;;4.53;3.59;;;;;;;;;;360552;146;857344;-58
2021/06/07 03:18:36;;;;;;;7.49;3.82;;;;;;;;;;355534;151;857341;-57
2021/06/07 03:19:37;;;;;;;5.15;3.85;;;;;;;;;;357128;147;859411;-58
2021/06/07 03:20:39;;;;;;;5.08;3.66;;;;;;;;;;356980;149;859510;-58
2021/06/07 03:21:41;;;;;;;6.27;3.81;;;;;;;;;;355481;151;864993;-58
2021/06/07 03:22:43;;;;;;;4.98;3.64;;;;;;;;;;356723;147;865899;-58
2021/06/07 03:23:44;;;;;;;6.15;3.71;;;;;;;;;;355480;147;858660;-58
2021/06/07 03:24:47;;;;;;;3.46;3.16;;;;;;;;;;356883;149;859199;-56
2021/06/07 03:25:49;;;;;;;5.01;3.37;;;;;;;;;;357616;147;864698;-59
2021/06/07 03:26:51;;;;;;;6.36;3.57;;;;;;;;;;355534;151;859494;-58
2021/06/07 03:27:52;;;;;;;4.69;3.23;;;;;;;;;;359481;149;857181;-59
2021/06/07 03:28:54;;;;;;;6.95;3.31;;;;;;;;;;356332;149;857235;-57
2021/06/07 03:29:55;;;;;;;8.97;3.63;;;;;;;;;;356530;149;857203;-58
2021/06/07 03:30:59;;;;;;;8.18;3.26;;;;;;;;;;357438;147;857377;-57
2021/06/07 03:32:00;;;;;;;4.57;3.34;;;;;;;;;;356665;147;867032;-57
2021/06/07 03:33:02;;;;;;;7.94;3.41;;;;;;;;;;357718;149;857290;-58
2021/06/07 03:34:04;;;;;;;12.11;3.71;;;;;;;;;;357022;147;857370;-58
2021/06/07 03:35:06;;;;;;;5.17;3.31;;;;;;;;;;358210;149;857378;-58
2021/06/07 03:36:09;;;;;;;4.87;3.52;;;;;;;;;;357580;148;859135;-57
2021/06/07 03:51:54;;;;;;;8.35;3.81;;;;;;;16.25;67.22;99538.09;368929;142;883869;-58
2021/06/07 03:52:56;;;;;;;5.47;3.95;;;;;;;16.21;67.03;99537.34;366141;147;857762;-58
2021/06/07 03:53:57;;;;;;;4.67;3.81;;;;;;;16.25;66.93;99540.70;363601;146;857325;-59
2021/06/07 03:54:59;;;;;;;8.97;4.09;;;;;;;16.27;66.99;99541.50;361838;146;857350;-57
2021/06/07 03:56:01;;;;;;;6.78;4.26;;;;;;;16.31;66.88;99549.14;365545;147;864826;-58
2021/06/07 03:57:05;;;;;;;8.74;4.67;;;;;;;16.35;66.82;99537.66;361595;146;864887;-57
2021/06/07 03:58:07;;;;;;;5.06;4.25;;;;;;;16.38;66.71;99538.45;359738;147;859032;-58
2021/06/07 03:59:09;;;;;;;5.87;4.38;;;;;;;16.37;66.81;99537.63;364459;147;857393;-56
2021/06/07 04:00:14;;;;;;;8.21;4.53;;;;;;;16.40;66.89;99545.34;362545;146;866734;-57
2021/06/07 04:01:16;;;;;;;6.85;4.85;;;;;;;16.45;66.76;99540.79;363707;147;857849;-57
2021/06/07 04:02:20;;;;;;;5.59;3.91;;;;;;;16.49;66.84;99546.76;363112;146;864942;-55
2021/06/07 04:03:22;;;;;;;6.99;3.83;;;;;;;16.51;66.49;99550.16;362472;147;864778;-59
2021/06/07 04:04:23;;;;;;;8.16;4.09;;;;;;;16.49;66.62;99550.20;360686;147;864880;-56
2021/06/07 04:05:26;;;;;;;6.91;4.19;;;;;;;16.54;67.12;99509.98;363026;147;864801;-57
2021/06/07 04:06:29;;;;;;;6.36;4.29;;;;;;;16.54;67.12;99509.98;360027;147;866576;-56
2021/06/07 04:07:32;;;;;;;6.88;4.77;;;;;;;16.63;66.83;99552.30;361844;147;857349;-57
2021/06/07 04:08:34;;;;;;;6.23;4.67;;;;;;;16.72;66.47;99551.06;361236;146;865036;-58
2021/06/07 04:09:38;;;;;;;7.51;4.21;;;;;;;16.80;66.07;99551.61;357972;147;857356;-56
2021/06/07 04:10:44;;;;;;;5.24;4.64;;;;;;;16.88;65.95;99556.54;356867;150;865675;-58
2021/06/07 04:11:45;;;;;;;8.29;4.54;;;;;;;16.92;65.21;99558.12;356466;149;857128;-57
2021/06/07 04:12:47;;;;;;;5.93;4.42;;;;;;;;;;357114;150;865359;-57
2021/06/07 04:13:49;;;;;;;9.59;4.74;;;;;;;;;;355894;150;866729;-57
2021/06/07 04:14:50;;;;;;;7.75;4.95;;;;;;;;;;356206;150;857296;-57
2021/06/07 04:15:52;;;;;;;8.03;4.86;;;;;;;;;;356361;149;857388;-56
2021/06/07 04:16:53;;;;;;;5.06;4.13;;;;;;;;;;357520;147;859348;-56
2021/06/07 04:17:55;;;;;;;6.16;4.27;;;;;;;;;;357063;147;865696;-57
2021/06/07 04:18:57;;;;;;;7.78;4.55;;;;;;;;;;355739;147;858275;-56
2021/06/07 04:19:58;;;;;;;9.74;4.99;;;;;;;;;;356650;149;867394;-56
2021/06/07 04:21:00;;;;;;;6.29;4.56;;;;;;;;;;360279;147;865224;-56
2021/06/07 04:22:02;;;;;;;5.54;4.88;;;;;;;;;;356377;149;864929;-57
2021/06/07 04:23:03;;;;;;;5.27;4.71;;;;;;;;;;355452;147;857280;-57
2021/06/07 04:24:06;;;;;;;6.63;4.83;;;;;;;;;;356958;147;866633;-57
2021/06/07 04:25:08;;;;;;;6.67;4.88;;;;;;;;;;356072;147;858944;-56
2021/06/07 04:26:10;;;;;;;11.22;4.63;;;;;;;;;;356327;147;860273;-60
2021/06/07 04:27:13;;;;;;;8.20;4.90;;;;;;;;;;354419;147;859275;-58
2021/06/07 04:28:15;;;;;;;8.94;4.74;;;;;;;;;;357449;147;857337;-57
2021/06/07 04:29:16;;;;;;;6.99;4.86;;;;;;;;;;354843;147;859207;-57
2021/06/07 04:30:19;;;;;;;7.98;5.26;;;;;;;;;;354961;147;857473;-57
2021/06/07 04:31:20;;;;;;;6.05;4.51;;;;;;;;;;357716;147;857326;-56
2021/06/07 04:32:22;;;;;;;7.41;4.90;;;;;;;;;;357283;147;857831;-54
2021/06/07 04:33:24;;;;;;;6.67;4.86;;;;;;;;;;355348;147;864804;-58
2021/06/07 04:34:25;;;;;;;5.56;4.96;;;;;;;;;;354686;147;857316;-55
2021/06/07 04:35:27;;;;;;;6.18;4.60;;;;;;;;;;356011;150;857492;-58
2021/06/07 04:36:30;;;;;;;10.61;5.02;;;;;;;;;;355619;149;857504;-57
2021/06/07 04:37:32;;;;;;;5.49;4.91;;;;;;;;;;353338;147;859805;-57
2021/06/07 04:38:33;;;;;;;6.21;4.79;;;;;;;;;;355657;147;865010;-59
2021/06/07 04:39:35;;;;;;;5.65;4.95;;;;;;;;;;354594;147;857815;-59
2021/06/07 04:40:38;;;;;;;7.77;4.40;;;;;;;;;;354686;147;857376;-58
2021/06/07 04:41:39;;;;;;;6.41;4.63;;;;;;;;;;354773;150;857308;-59
2021/06/07 04:42:41;;;;;;;5.51;4.44;;;;;;;;;;357653;149;857420;-58
2021/06/07 04:43:42;;;;;;;6.94;4.71;;;;;;;;;;356782;149;857453;-58
2021/06/07 04:44:44;;;;;;;7.64;4.71;;;;;;;;;;357714;147;859046;-58
2021/06/07 04:45:46;;;;;;;9.61;4.64;;;;;;;;;;355180;149;859280;-58
2021/06/07 04:46:48;;;;;;;7.34;4.27;;;;;;;;;;354270;150;856758;-58
2021/06/07 04:47:50;;;;;;;5.74;4.32;;;;;;;;;;356375;149;866186;-56
2021/06/07 04:48:52;;;;;;;9.66;4.31;;;;;;;;;;356070;150;859008;-58
2021/06/07 04:49:53;;;;;;;5.69;4.17;;;;;;;;;;353968;149;865214;-59
2021/06/07 04:50:55;;;;;;;4.92;4.14;;;;;;;;;;355074;149;857221;-58
2021/06/07 04:51:56;;;;;;;6.89;4.29;;;;;;;;;;352452;152;864947;-58
2021/06/07 04:53:01;;;;;;;6.18;4.51;;;;;;;;;;354242;150;857228;-58
2021/06/07 04:54:03;;;;;;;7.02;4.31;;;;;;;;;;358245;149;857388;-59
2021/06/07 04:55:05;;;;;;;7.77;4.03;;;;;;;;;;359701;149;857418;-60
2021/06/07 04:56:08;;;;;;;7.79;4.29;;;;;;;;;;357532;147;864919;-56
2021/06/07 04:57:10;;;;;;;7.17;4.48;;;;;;;;;;351742;149;861145;-57
2021/06/07 04:58:16;;;;;;;8.86;4.84;;;;;;;;;;354777;150;868557;-57
2021/06/07 04:59:18;;;;;;;4.76;3.92;;;;;;;;;;357570;149;858147;-57
2021/06/07 05:00:21;;;;;;;5.00;4.39;;;;;;;;;;359085;149;860192;-57
2021/06/07 05:01:23;;;;;;;7.49;4.56;;;;;;;;;;354966;150;859628;-55
2021/06/07 05:02:25;;;;;;;7.44;4.61;;;;;;;;;;353903;149;857218;-57
2021/06/07 05:03:26;;;;;;;7.84;4.56;;;;;;;;;;354330;150;857318;-58
2021/06/07 05:04:28;;;;;;;5.85;4.45;;;;;;;;;;351678;152;857793;-56
2021/06/07 05:05:30;;;;;;;7.36;4.51;;;;;;;;;;354829;149;857302;-57
2021/06/07 05:06:32;;;;;;;5.61;4.04;;;;;;;;;;356408;150;857357;-58
2021/06/07 05:07:33;;;;;;;12.42;4.16;;;;;;;;;;357659;147;859626;-57
2021/06/07 05:08:35;;;;;;;7.47;4.82;;;;;;;;;;359125;150;864102;-57
2021/06/07 05:09:36;;;;;;;9.45;4.51;;;;;;;;;;357356;150;858693;-57
2021/06/07 05:10:38;;;;;;;4.96;4.29;;;;;;;;;;349063;152;857302;-57
2021/06/07 05:11:41;;;;;;;5.33;4.45;;;;;;;;;;356650;150;857848;-57
2021/06/07 05:12:43;;;;;;;6.08;4.51;;;;;;;;;;358824;150;857327;-56
2021/06/07 05:13:44;;;;;;;5.37;4.12;;;;;;;;;;357245;150;865374;-57
2021/06/07 05:14:47;;;;;;;9.34;4.31;;;;;;;;;;359599;149;857713;-57
2021/06/07 05:15:48;;;;;;;5.08;4.36;;;;;;;;;;358644;149;858284;-58
2021/06/07 05:16:50;;;;;;;4.89;3.89;;;;;;;;;;358903;149;857273;-57
2021/06/07 05:17:52;;;;;;;6.69;4.22;;;;;;;;;;358350;149;860597;-57
2021/06/07 05:18:53;;;;;;;5.70;3.95;;;;;;;;;;356734;149;860504;-55
2021/06/07 05:19:55;;;;;;;7.56;4.07;;;;;;;;;;354156;150;858746;-56
2021/06/07 05:20:57;;;;;;;5.49;3.91;;;;;;;;;;354151;150;858469;-57
2021/06/07 05:21:58;;;;;;;7.89;4.02;;;;;;;;;;355686;149;864843;-59
2021/06/07 05:23:00;;;;;;;7.99;4.32;;;;;;;;;;354480;149;857285;-55
2021/06/07 05:24:01;;;;;;;4.61;3.91;;;;;;;;;;358102;150;859510;-58
2021/06/07 05:25:04;;;;;;;5.74;4.39;;;;;;;;;;357586;149;859033;-56
2021/06/07 05:26:06;;;;;;;5.46;3.96;;;;;;;;;;356637;149;857706;-59
2021/06/07 05:27:08;;;;;;;5.92;3.91;;;;;;;;;;356232;149;860968;-59
2021/06/07 05:28:11;;;;;;;4.79;4.20;;;;;;;;;;356740;149;865073;-58
2021/06/07 05:29:12;;;;;;;5.75;4.01;;;;;;;;;;359072;150;859727;-59
2021/06/07 05:30:16;;;;;;;5.45;4.13;;;;;;;;;;357931;150;857420;-58
2021/06/07 05:31:17;;;;;;;5.82;4.05;;;;;;;;;;354235;150;866027;-58
2021/06/07 05:32:19;;;;;;;4.78;4.24;;;;;;;;;;359167;149;860638;-58
2021/06/07 05:33:20;;;;;;;6.89;4.29;;;;;;;;;;356113;149;857900;-58
2021/06/07 05:34:22;;;;;;;7.32;4.10;;;;;;;;;;355825;150;857296;-58
2021/06/07 05:35:25;;;;;;;6.92;4.16;;;;;;;;;;357437;147;864739;-57
2021/06/07 05:36:29;;;;;;;6.74;4.30;;;;;;;;;;355123;147;857296;-58
2021/06/07 05:37:31;;;;;;;5.63;3.70;;;;;;;;;;356093;150;859297;-57
2021/06/07 05:38:32;;;;;;;4.27;3.89;;;;;;;;;;355034;147;857410;-57
2021/06/07 05:39:34;;;;;;;5.79;4.11;;;;;;;;;;357855;147;864982;-58
2021/06/07 05:40:37;;;;;;;4.11;3.71;;;;;;;;;;355530;150;857291;-57
2021/06/07 05:41:38;;;;;;;5.51;3.81;;;;;;;;;;355746;147;859107;-57
2021/06/07 05:42:40;;;;;;;5.80;4.41;;;;;;;;;;359997;147;859035;-58
2021/06/07 05:43:41;;;;;;;6.15;4.03;;;;;;;;;;361283;147;858804;-58
2021/06/07 05:44:43;;;;;;;6.09;4.11;;;;;;;;;;356855;147;859635;-58
2021/06/07 05:45:45;;;;;;;8.81;4.29;;;;;;;;;;353226;150;859403;-58
2021/06/07 05:46:50;;;;;;;5.09;3.91;;;;;;;;;;357559;149;857219;-58
2021/06/07 05:47:54;;;;;;;7.95;4.50;;;;;;;;;;357324;149;857547;-59
2021/06/07 05:48:55;;;;;;;6.49;4.17;;;;;;;;;;355937;147;866597;-58
2021/06/07 05:49:57;;;;;;;4.76;4.09;;;;;;;;;;357302;147;857264;-58
2021/06/07 05:50:58;;;;;;;5.87;3.90;;;;;;;;;;356457;149;866406;-56
2021/06/07 05:52:00;;;;;;;6.37;4.28;;;;;;;;;;355703;149;865287;-59
2021/06/07 05:53:02;;;;;;;6.90;4.13;;;;;;;;;;357450;149;859268;-57
2021/06/07 05:54:04;;;;;;;5.88;3.87;;;;;;;;;;352908;150;858962;-59
2021/06/07 05:55:06;;;;;;;5.93;3.86;;;;;;;;;;356085;150;859141;-61
2021/06/07 05:56:08;;;;;;;4.62;3.95;;;;;;;;;;357516;147;864930;-62
2021/06/07 05:57:10;;;;;;;4.86;4.09;;;;;;;;;;357191;150;859084;-59
2021/06/07 05:58:16;;;;;;;4.03;3.63;;;;;;;;;;356731;150;857587;-59
2021/06/07 05:59:17;;;;;;;4.38;3.64;;;;;;;;;;357086;147;859542;-59
2021/06/07 06:00:22;;;;;;;7.06;4.30;;;;;;;;;;356035;150;859420;-59
2021/06/07 06:01:24;;;;;;;4.37;3.74;;;;;;;;;;355719;147;859906;-60
2021/06/07 06:02:26;;;;;;;5.19;3.73;;;;;;;;;;355516;149;866584;-58
2021/06/07 06:03:29;;;;;;;4.35;3.95;;;;;;;;;;355387;149;857439;-58
2021/06/07 06:04:31;;;;;;;4.34;3.86;;;;;;;;;;357584;149;857404;-59
2021/06/07 06:05:32;;;;;;;6.70;3.83;;;;;;;;;;354923;149;859892;-57
2021/06/07 06:06:35;;;;;;;4.29;3.48;;;;;;;;;;355198;149;857407;-58
2021/06/07 06:07:36;;;;;;;6.29;3.89;;;;;;;;;;355483;149;857421;-56
2021/06/07 06:08:38;;;;;;;5.46;3.54;;;;;;;;;;355617;147;857303;-56
2021/06/07 06:09:39;;;;;;;4.29;3.65;;;;;;;;;;356480;150;866640;-56
2021/06/07 06:10:41;;;;;;;6.54;3.62;;;;;;;;;;356094;149;858370;-57
2021/06/07 06:11:43;;;;;;;6.11;4.13;;;;;;;;;;354196;151;866071;-57
2021/06/07 06:12:45;;;;;;;5.36;3.66;;;;;;;;;;353167;149;859218;-57
2021/06/07 06:13:47;;;;;;;6.05;3.96;;;;;;;;;;354883;150;866803;-57
2021/06/07 06:14:48;;;;;;;5.83;3.77;;;;;;;;;;355030;150;858278;-57
2021/06/07 06:15:50;;;;;;;7.81;3.72;;;;;;;;;;358133;150;857522;-58
2021/06/07 06:16:52;;;;;;;6.25;3.89;;;;;;;;;;355417;149;858070;-57
2021/06/07 06:17:54;;;;;;;5.48;3.45;;;;;;;;;;356008;150;857242;-57